createdAt,value
2023-03-21T00:09:39.792Z,87.70
2023-03-21T00:20:02.376Z,87.90
2023-03-21T00:30:24.054Z,87.80
2023-03-21T00:40:49.251Z,88.50
2023-03-21T00:51:25.929Z,88.30
2023-03-21T01:01:47.399Z,88.30
2023-03-21T01:12:08.547Z,88.30
2023-03-21T01:22:31.668Z,88.50
2023-03-21T01:32:52.887Z,88.50
2023-03-21T01:43:35.208Z,88.70
2023-03-21T01:54:00.616Z,88.80
2023-03-21T02:04:28.131Z,88.80
2023-03-21T02:15:10.660Z,89.20
2023-03-21T02:26:11.241Z,89.50
2023-03-21T02:36:56.643Z,89.60
2023-03-21T02:47:47.535Z,89.50
2023-03-21T02:58:13.846Z,89.70
2023-03-21T03:09:23.307Z,89.70
2023-03-21T03:20:32.361Z,89.90
2023-03-21T03:31:08.201Z,89.80
2023-03-21T03:52:56.198Z,90.10
2023-03-21T04:03:22.087Z,90.20
2023-03-21T04:13:44.320Z,90.30
2023-03-21T04:24:09.524Z,90.30
2023-03-21T04:34:31.118Z,90.40
2023-03-21T04:44:56.544Z,90.50
2023-03-21T04:55:21.701Z,90.30
2023-03-21T05:05:43.121Z,90.10
2023-03-21T05:16:06.898Z,89.90
2023-03-21T05:26:28.371Z,90.40
2023-03-21T05:36:59.731Z,90.00
2023-03-21T05:47:31.313Z,89.00
2023-03-21T05:57:54.500Z,88.00
2023-03-21T06:08:21.127Z,87.10
2023-03-21T06:18:42.773Z,85.10
2023-03-21T06:29:29.960Z,83.50
2023-03-21T06:39:51.182Z,82.00
2023-03-21T06:50:14.795Z,80.50
2023-03-21T07:00:38.501Z,79.30
2023-03-21T07:11:00.764Z,77.40
2023-03-21T07:21:23.447Z,76.00
2023-03-21T07:31:45.016Z,74.30
2023-03-21T07:42:06.509Z,72.90
2023-03-21T07:52:33.732Z,69.80
2023-03-21T08:02:58.888Z,68.10
2023-03-21T08:13:20.850Z,66.20
2023-03-21T08:23:42.332Z,64.70
2023-03-21T08:34:03.614Z,62.40
2023-03-21T08:44:26.046Z,61.90
2023-03-21T08:54:48.559Z,61.60
2023-03-21T09:05:12.180Z,60.20
2023-03-21T09:15:35.503Z,58.10
2023-03-21T09:25:56.790Z,56.10
2023-03-21T09:36:20.968Z,55.60
2023-03-21T09:47:13.965Z,53.50
2023-03-21T09:57:43.318Z,52.50
2023-03-21T10:08:19.698Z,52.70
2023-03-21T10:18:43.154Z,51.40
2023-03-21T10:29:04.730Z,49.20
2023-03-21T10:39:51.638Z,50.50
2023-03-21T10:50:17.700Z,49.90
2023-03-21T11:00:41.735Z,48.70
2023-03-21T11:11:09.786Z,48.30
2023-03-21T11:21:38.494Z,49.90
2023-03-21T11:32:23.398Z,48.80
2023-03-21T11:42:49.838Z,46.70
2023-03-21T11:53:19.681Z,47.70
2023-03-21T12:04:08.355Z,46.80
2023-03-21T12:14:56.120Z,45.80
2023-03-21T12:25:27.752Z,43.60
2023-03-21T12:36:21.911Z,41.40
2023-03-21T12:46:54.023Z,43.60
2023-03-21T12:57:30.105Z,46.30
2023-03-21T13:08:17.551Z,47.70
2023-03-21T13:19:29.154Z,46.30
2023-03-21T13:29:53.321Z,46.30
2023-03-21T13:40:50.220Z,46.30
2023-03-21T13:51:11.860Z,47.60
2023-03-21T14:01:41.778Z,47.60
2023-03-21T14:12:08.186Z,46.60
2023-03-21T14:22:30.766Z,48.40
2023-03-21T14:32:57.050Z,48.80
2023-03-21T14:43:23.859Z,49.70
2023-03-21T14:53:46.132Z,49.80
2023-03-21T15:04:08.210Z,52.10
2023-03-21T15:14:34.171Z,55.00
2023-03-21T15:25:02.121Z,62.90
2023-03-21T15:35:48.200Z,68.00
2023-03-21T15:46:25.880Z,71.90
2023-03-21T15:56:51.717Z,78.80
2023-03-21T16:07:17.526Z,85.60
2023-03-21T16:17:39.655Z,90.20
2023-03-21T16:28:01.252Z,91.70
2023-03-21T16:38:22.826Z,92.30
2023-03-21T16:48:46.991Z,91.90
2023-03-21T16:59:08.154Z,91.80
2023-03-21T17:09:29.493Z,92.00
2023-03-21T17:19:50.110Z,91.60
2023-03-21T17:30:28.876Z,91.30
2023-03-21T17:40:50.600Z,91.40
2023-03-21T17:51:17.683Z,91.20
2023-03-21T18:01:38.578Z,91.10
2023-03-21T18:11:59.358Z,90.80
2023-03-21T18:22:19.873Z,90.60
2023-03-21T18:32:41.701Z,90.40
2023-03-21T18:43:55.968Z,90.30
2023-03-21T18:53:46.332Z,90.30
2023-03-21T19:04:29.767Z,90.30
2023-03-21T19:14:48.646Z,89.90
2023-03-21T19:25:10.546Z,89.30
2023-03-21T19:35:31.507Z,89.50
2023-03-21T19:45:52.891Z,89.60
2023-03-21T19:56:21.722Z,88.70
2023-03-21T20:06:44.214Z,88.40
2023-03-21T20:17:04.801Z,87.90
2023-03-21T20:27:25.854Z,87.70
2023-03-21T20:37:48.754Z,87.60
2023-03-21T20:48:09.543Z,87.80
2023-03-21T20:58:58.970Z,87.30
2023-03-21T21:09:13.941Z,86.50
2023-03-21T21:19:35.124Z,86.00
2023-03-21T21:29:57.521Z,85.50
2023-03-21T21:40:20.671Z,86.80
2023-03-21T21:50:42.495Z,87.60
2023-03-21T22:01:03.506Z,87.70
2023-03-21T22:11:23.918Z,88.10
2023-03-21T22:21:45.570Z,88.30
2023-03-21T22:32:06.195Z,88.30
2023-03-21T22:42:27.912Z,88.50
2023-03-21T22:52:48.933Z,88.80
2023-03-21T23:03:09.573Z,89.00
2023-03-21T23:13:31.446Z,89.40
2023-03-21T23:23:53.003Z,89.70
2023-03-21T23:34:14.342Z,89.10
2023-03-21T23:44:35.326Z,88.60
2023-03-21T23:54:56.498Z,88.60
